Time;durP1;ratioP1;P1;durP2;ratioP2;P2;SDS_P1;SDS_P2;PMS_P1;PMS_P2;Temp;Humidity;BMP_temperature;BMP_pressure;BME280_temperature;BME280_humidity;BME280_pressure;Samples;Min_cycle;Max_cycle;Signal;HPM_P1;HPM_P2
2023/03/24 00:02:06;;;;;;;0.40;0.40;;;;;;;5.83;100.00;98130.13;5003333;28;20090;-75
2023/03/24 00:04:35;;;;;;;0.43;0.43;;;;;;;5.74;100.00;98142.84;5002842;28;20048;-74
2023/03/24 00:07:04;;;;;;;0.52;0.52;;;;;;;5.51;100.00;98114.81;5020237;28;20248;-74
2023/03/24 00:09:32;;;;;;;0.60;0.60;;;;;;;5.41;100.00;98105.59;5019101;28;20060;-77
2023/03/24 00:12:00;;;;;;;0.75;0.60;;;;;;;5.26;100.00;98109.31;5018490;28;20506;-77
2023/03/24 00:14:29;;;;;;;1.05;0.60;;;;;;;5.20;100.00;98101.34;5003192;28;20037;-75
2023/03/24 00:16:57;;;;;;;0.63;0.60;;;;;;;5.20;100.00;98069.38;5018430;28;20029;-78
2023/03/24 00:19:23;;;;;;;0.43;0.43;;;;;;;5.18;100.00;98056.25;5019457;28;20033;-75
2023/03/24 00:21:50;;;;;;;0.40;0.40;;;;;;;5.12;100.00;98081.06;5002412;28;20036;-78
2023/03/24 00:24:24;;;;;;;0.45;0.45;;;;;;;5.03;100.00;98080.44;5020001;28;20029;-75
2023/03/24 00:26:50;;;;;;;0.40;0.40;;;;;;;4.99;100.00;98075.72;5018297;28;20395;-79
2023/03/24 00:29:19;;;;;;;0.40;0.40;;;;;;;4.92;100.00;98066.91;5019103;28;20154;-75
2023/03/24 00:31:44;;;;;;;0.40;0.40;;;;;;;4.91;100.00;98081.28;5002760;28;20037;-75
2023/03/24 00:34:11;;;;;;;0.40;0.40;;;;;;;4.97;100.00;98099.06;5018791;28;20044;-75
2023/03/24 00:36:37;;;;;;;0.50;0.50;;;;;;;5.04;100.00;98097.25;5034226;28;20048;-76
2023/03/24 00:39:05;;;;;;;0.40;0.40;;;;;;;5.05;100.00;98086.41;5002287;28;20456;-76
2023/03/24 00:41:30;;;;;;;0.43;0.43;;;;;;;5.05;100.00;98085.56;5018404;28;20038;-76
2023/03/24 00:43:58;;;;;;;0.73;0.60;;;;;;;5.05;100.00;98083.72;5018593;28;20029;-76
2023/03/24 00:46:27;;;;;;;0.40;0.40;;;;;;;5.13;100.00;98089.84;5018765;28;20037;-75
2023/03/24 00:49:05;;;;;;;0.40;0.40;;;;;;;5.11;100.00;98086.56;5017865;28;20038;-74
2023/03/24 00:51:34;;;;;;;0.40;0.40;;;;;;;5.10;100.00;98085.75;5001503;28;20037;-74
2023/03/24 00:54:03;;;;;;;0.50;0.50;;;;;;;5.06;100.00;98081.88;4985434;28;20051;-75
2023/03/24 00:56:31;;;;;;;0.40;0.40;;;;;;;5.03;100.00;98069.78;5003094;28;20068;-76
2023/03/24 00:59:00;;;;;;;0.50;0.50;;;;;;;5.07;100.00;98073.66;5034929;28;20471;-73
2023/03/24 01:01:28;;;;;;;0.40;0.40;;;;;;;5.03;100.00;98069.78;5002195;28;20099;-75
2023/03/24 01:03:56;;;;;;;0.40;0.40;;;;;;;4.93;100.00;98047.28;5018238;28;20041;-75
2023/03/24 01:06:23;;;;;;;0.50;0.50;;;;;;;5.09;100.00;98067.34;5033701;28;20033;-78
2023/03/24 01:08:52;;;;;;;0.50;0.50;;;;;;;5.13;100.00;98063.22;5034574;28;20025;-75
2023/03/24 01:11:26;;;;;;;0.50;0.50;;;;;;;5.22;100.00;98069.97;5033765;28;20034;-75
2023/03/24 01:13:53;;;;;;;0.50;0.50;;;;;;;5.37;100.00;98085.72;5002013;28;20033;-76
2023/03/24 01:16:20;;;;;;;0.50;0.50;;;;;;;5.34;100.00;98067.50;5034331;28;20495;-76
2023/03/24 01:18:53;;;;;;;0.40;0.40;;;;;;;5.41;100.00;98076.31;5001355;28;20056;-75
2023/03/24 01:21:19;;;;;;;0.50;0.50;;;;;;;5.37;100.00;98070.59;5017776;28;20473;-76
2023/03/24 01:23:46;;;;;;;0.40;0.40;;;;;;;5.37;100.00;98067.06;5033198;28;20138;-75
2023/03/24 01:26:12;;;;;;;0.50;0.50;;;;;;;5.32;100.00;98059.72;5017430;28;20124;-75
2023/03/24 01:28:42;;;;;;;0.40;0.40;;;;;;;5.32;100.00;98058.88;5001495;28;20116;-74
2023/03/24 01:31:08;;;;;;;0.40;0.40;;;;;;;5.39;100.00;98065.03;5001870;28;20536;-76
2023/03/24 01:33:41;;;;;;;0.40;0.40;;;;;;;5.40;100.00;98058.66;5001149;28;20037;-73
2023/03/24 01:36:06;;;;;;;0.40;0.40;;;;;;;5.31;100.00;98059.91;5000883;28;20045;-74
2023/03/24 01:38:33;;;;;;;0.50;0.50;;;;;;;5.23;100.00;98061.75;5000502;28;20045;-74
2023/03/24 01:40:58;;;;;;;0.40;0.40;;;;;;;5.23;100.00;98063.63;5001260;28;20033;-73
2023/03/24 01:43:29;;;;;;;0.40;0.40;;;;;;;5.23;100.00;98064.44;5001309;28;20033;-73
2023/03/24 01:46:11;;;;;;;0.40;0.40;;;;;;;5.34;100.00;98059.50;5017466;28;20025;-74
2023/03/24 01:49:00;;;;;;;0.40;0.40;;;;;;;5.49;100.00;98050.22;5001015;28;20037;-75
2023/03/24 01:51:42;;;;;;;0.40;0.40;;;;;;;5.65;100.00;98051.63;5049559;28;20045;-75
2023/03/24 01:54:16;;;;;;;0.40;0.40;;;;;;;5.67;100.00;98038.09;5033747;28;20036;-73
2023/03/24 01:56:49;;;;;;;0.40;0.40;;;;;;;5.68;100.00;98037.88;5017206;28;20033;-73
2023/03/24 01:59:20;;;;;;;0.40;0.40;;;;;;;5.71;100.00;98039.28;5000047;28;20046;-74
2023/03/24 02:01:45;;;;;;;0.47;0.47;;;;;;;5.73;100.00;98031.91;5000962;28;20078;-73
2023/03/24 02:04:12;;;;;;;0.40;0.40;;;;;;;5.78;100.00;98033.94;5000726;28;20029;-75
2023/03/24 02:06:42;;;;;;;0.40;0.40;;;;;;;5.74;100.00;98030.88;5016692;28;20044;-73
2023/03/24 02:09:09;;;;;;;0.40;0.40;;;;;;;5.65;100.00;98032.16;5017310;28;20029;-74
2023/03/24 02:11:36;;;;;;;0.40;0.40;;;;;;;5.58;100.00;98031.34;5033378;28;20112;-76
2023/03/24 02:14:02;;;;;;;0.50;0.50;;;;;;;5.48;100.00;98029.94;5032604;28;20468;-75
2023/03/24 02:16:54;;;;;;;0.40;0.40;;;;;;;5.48;100.00;98034.47;5000711;28;20037;-74
2023/03/24 02:19:40;;;;;;;0.50;0.50;;;;;;;5.58;100.00;98034.00;5016527;28;20365;-76
2023/03/24 02:22:32;;;;;;;0.50;0.50;;;;;;;5.75;100.00;98034.38;5015438;28;20131;-75
2023/03/24 02:25:16;;;;;;;0.40;0.40;;;;;;;5.85;100.00;98045.41;5030268;28;20042;-75
2023/03/24 02:28:20;;;;;;;0.40;0.40;;;;;;;5.77;100.00;98038.47;5016835;28;20029;-75
2023/03/24 02:31:10;;;;;;;0.40;0.40;;;;;;;5.69;100.00;98036.03;5011143;28;20034;-75
2023/03/24 02:33:54;;;;;;;0.40;0.40;;;;;;;5.60;100.00;98027.44;5005058;28;20128;-75
2023/03/24 02:37:03;;;;;;;0.50;0.50;;;;;;;5.57;100.00;98032.38;5016699;28;20052;-75
2023/03/24 02:39:54;;;;;;;0.45;0.45;;;;;;;5.58;100.00;98034.81;5032458;28;20033;-77
2023/03/24 02:42:29;;;;;;;0.40;0.40;;;;;;;5.65;100.00;98030.28;5000364;28;20379;-76
2023/03/24 02:45:00;;;;;;;0.50;0.50;;;;;;;5.68;100.00;98026.38;5032245;28;20484;-75
2023/03/24 02:48:01;;;;;;;0.40;0.40;;;;;;;5.70;100.00;98040.34;5032788;28;20454;-76
2023/03/24 02:50:51;;;;;;;0.40;0.40;;;;;;;5.63;100.00;98043.00;5028347;28;20053;-75
2023/03/24 02:53:44;;;;;;;0.40;0.40;;;;;;;5.64;100.00;98039.34;4999147;28;20030;-75
2023/03/24 02:56:12;;;;;;;0.40;0.40;;;;;;;5.61;100.00;98036.25;5028307;28;20044;-76
2023/03/24 02:58:47;;;;;;;0.40;0.40;;;;;;;5.61;100.00;98036.25;5032226;28;20482;-75
2023/03/24 03:01:31;;;;;;;0.40;0.40;;;;;;;5.59;100.00;98027.66;5031967;28;20037;-74
2023/03/24 03:04:12;;;;;;;0.40;0.40;;;;;;;5.64;100.00;98026.00;5001086;28;20499;-75
2023/03/24 03:06:39;;;;;;;0.50;0.50;;;;;;;5.63;100.00;98021.69;4999858;28;20113;-76
2023/03/24 03:09:08;;;;;;;0.55;0.55;;;;;;;5.59;100.00;98033.00;5031498;28;20116;-75
2023/03/24 03:11:36;;;;;;;0.40;0.40;;;;;;;5.68;100.00;98045.88;4999860;28;20087;-75
2023/03/24 03:14:06;;;;;;;0.47;0.47;;;;;;;5.73;100.00;98038.06;5032289;28;20072;-75
2023/03/24 03:17:00;;;;;;;0.50;0.50;;;;;;;5.83;100.00;98050.13;5014972;28;20037;-75
2023/03/24 03:19:37;;;;;;;0.40;0.40;;;;;;;5.86;100.00;98053.19;5014861;28;20460;-75
2023/03/24 03:22:05;;;;;;;0.47;0.47;;;;;;;5.86;100.00;98031.03;5015885;28;20045;-75
2023/03/24 03:24:38;;;;;;;0.40;0.40;;;;;;;5.81;100.00;98030.84;5031895;28;20033;-77
2023/03/24 03:27:37;;;;;;;0.45;0.45;;;;;;;5.76;100.00;98031.47;5015835;28;20045;-75
2023/03/24 03:30:21;;;;;;;0.50;0.50;;;;;;;5.69;100.00;98026.19;5016112;28;20040;-77
2023/03/24 03:32:52;;;;;;;0.50;0.50;;;;;;;5.77;100.00;98026.97;4999437;28;20120;-75
2023/03/24 03:35:23;;;;;;;0.40;0.40;;;;;;;5.87;100.00;98016.66;5015981;28;20472;-75
2023/03/24 03:38:16;;;;;;;0.40;0.40;;;;;;;5.92;100.00;98008.84;5014629;28;20026;-74
2023/03/24 03:40:49;;;;;;;0.40;0.40;;;;;;;6.07;100.00;98020.09;5015642;28;20045;-75
2023/03/24 03:43:15;;;;;;;0.43;0.43;;;;;;;6.06;100.00;98021.13;5032554;28;20059;-75
2023/03/24 03:45:43;;;;;;;0.43;0.43;;;;;;;5.96;100.00;98015.44;5014663;28;20396;-75
2023/03/24 03:48:09;;;;;;;0.63;0.50;;;;;;;5.94;100.00;97998.81;5032061;28;20030;-76
2023/03/24 03:50:37;;;;;;;0.50;0.50;;;;;;;5.99;100.00;98012.34;5015595;28;20034;-76
2023/03/24 03:53:11;;;;;;;0.40;0.40;;;;;;;6.00;100.00;98023.81;5014783;28;20484;-74
2023/03/24 03:55:40;;;;;;;0.50;0.50;;;;;;;6.05;100.00;98019.47;5016391;28;20087;-75
2023/03/24 03:58:06;;;;;;;0.50;0.50;;;;;;;6.12;100.00;98020.25;5031489;28;20076;-76
2023/03/24 04:00:33;;;;;;;0.40;0.40;;;;;;;6.14;100.00;98017.38;5015762;28;20029;-75
2023/03/24 04:03:04;;;;;;;0.40;0.40;;;;;;;6.10;100.00;98024.97;4998603;28;20038;-75
2023/03/24 04:05:34;;;;;;;0.70;0.70;;;;;;;6.03;100.00;98016.19;5031924;28;20056;-75
2023/03/24 04:08:24;;;;;;;0.50;0.50;;;;;;;6.03;100.00;98010.84;5031810;28;20369;-75
2023/03/24 04:11:14;;;;;;;;;;;;;;;6.08;100.00;98020.88;5032859;28;20030;-72
2023/03/24 04:14:15;;;;;;;0.63;0.60;;;;;;;6.18;100.00;98020.44;5031777;28;19913;-75
2023/03/24 04:16:56;;;;;;;0.50;0.50;;;;;;;6.15;100.00;98014.50;5014892;28;20033;-77
2023/03/24 04:19:43;;;;;;;0.40;0.40;;;;;;;6.07;100.00;98044.09;5031210;28;20515;-75
2023/03/24 04:22:12;;;;;;;0.50;0.50;;;;;;;6.07;100.00;98029.94;5031604;28;20037;-74
2023/03/24 04:24:53;;;;;;;1.33;0.90;;;;;;;5.98;100.00;98005.38;5032591;28;20052;-78
2023/03/24 04:27:37;;;;;;;0.40;0.40;;;;;;;5.96;100.00;98011.94;5033385;28;20029;-75
2023/03/24 04:30:14;;;;;;;0.60;0.60;;;;;;;5.97;100.00;98017.06;5019075;28;20128;-76
2023/03/24 04:32:53;;;;;;;0.40;0.40;;;;;;;6.03;100.00;98018.03;5035444;28;20037;-77
2023/03/24 04:35:44;;;;;;;0.40;0.40;;;;;;;6.09;100.00;98034.03;5018734;28;20026;-75
2023/03/24 04:38:15;;;;;;;0.50;0.50;;;;;;;6.07;100.00;98037.94;5018703;28;20033;-75
2023/03/24 04:40:48;;;;;;;0.40;0.40;;;;;;;6.00;100.00;98032.63;5018551;28;20079;-76
2023/03/24 04:43:16;;;;;;;0.50;0.50;;;;;;;5.98;100.00;98040.03;5019033;28;20033;-75
2023/03/24 04:45:48;;;;;;;0.50;0.50;;;;;;;6.00;100.00;98037.97;5002195;28;20041;-79
2023/03/24 04:48:16;;;;;;;0.40;0.40;;;;;;;6.03;100.00;98053.53;5002395;28;20083;-75
2023/03/24 04:50:54;;;;;;;0.50;0.50;;;;;;;6.01;100.00;98025.47;5018794;28;20037;-76
2023/03/24 04:53:23;;;;;;;1.23;0.50;;;;;;;5.98;100.00;98045.38;5001954;28;20521;-78
2023/03/24 04:55:48;;;;;;;0.40;0.40;;;;;;;5.98;100.00;98037.38;5001417;28;20040;-74
2023/03/24 04:58:15;;;;;;;0.40;0.40;;;;;;;5.99;100.00;98031.00;5018091;28;20042;-75
2023/03/24 05:00:43;;;;;;;0.40;0.40;;;;;;;5.99;100.00;98028.34;5001979;28;20037;-75
2023/03/24 05:03:13;;;;;;;0.40;0.40;;;;;;;6.03;100.00;98034.06;5018252;28;20048;-75
2023/03/24 05:05:43;;;;;;;0.50;0.50;;;;;;;5.98;100.00;98028.53;5002165;28;20029;-74
2023/03/24 05:08:12;;;;;;;0.50;0.50;;;;;;;6.02;100.00;98041.25;5035677;28;20033;-76
2023/03/24 05:10:38;;;;;;;0.40;0.40;;;;;;;5.97;100.00;98041.06;5001584;28;20064;-76
2023/03/24 05:13:05;;;;;;;0.40;0.40;;;;;;;5.87;100.00;98046.81;5001642;28;20107;-75
2023/03/24 05:15:37;;;;;;;0.40;0.40;;;;;;;5.82;100.00;98053.81;5002262;28;20037;-76
2023/03/24 05:18:03;;;;;;;0.40;0.40;;;;;;;5.75;100.00;98051.19;5033181;28;20061;-74
2023/03/24 05:20:31;;;;;;;0.40;0.40;;;;;;;5.62;100.00;98044.03;5001733;28;20124;-76
2023/03/24 05:22:57;;;;;;;0.40;0.40;;;;;;;5.62;100.00;98037.91;5018065;28;20026;-75
2023/03/24 05:25:23;;;;;;;0.50;0.50;;;;;;;5.67;100.00;98049.56;5000736;28;20468;-77
2023/03/24 05:27:51;;;;;;;0.50;0.50;;;;;;;5.71;100.00;98040.09;5001381;28;20472;-76
2023/03/24 05:30:19;;;;;;;0.50;0.50;;;;;;;5.77;100.00;98048.28;5018291;28;20033;-74
2023/03/24 05:32:45;;;;;;;0.50;0.50;;;;;;;5.80;100.00;98043.38;5017812;28;20473;-75
2023/03/24 05:35:10;;;;;;;0.50;0.50;;;;;;;5.86;100.00;98049.69;5000772;28;20033;-74
2023/03/24 05:37:36;;;;;;;0.40;0.40;;;;;;;5.89;100.00;98044.75;5001230;28;20033;-76
2023/03/24 05:40:05;;;;;;;0.40;0.40;;;;;;;5.96;100.00;98054.63;5017347;28;20072;-75
2023/03/24 05:42:31;;;;;;;0.40;0.40;;;;;;;5.99;100.00;98057.69;5017070;28;20087;-78
2023/03/24 05:45:00;;;;;;;0.40;0.40;;;;;;;5.96;100.00;98043.97;5000840;28;20045;-74
2023/03/24 05:47:28;;;;;;;0.40;0.40;;;;;;;5.92;100.00;98048.84;5001278;28;20128;-77
2023/03/24 05:49:55;;;;;;;0.40;0.40;;;;;;;5.85;100.00;98040.88;5017093;28;20479;-74
2023/03/24 05:52:21;;;;;;;0.50;0.50;;;;;;;5.74;100.00;98041.53;5017264;28;20152;-76
2023/03/24 05:54:50;;;;;;;0.50;0.50;;;;;;;5.63;100.00;98052.84;5000902;28;20033;-76
2023/03/24 05:57:20;;;;;;;0.40;0.40;;;;;;;5.46;100.00;98053.31;5033096;28;20067;-75
2023/03/24 05:59:45;;;;;;;0.40;0.40;;;;;;;5.41;100.00;98039.81;5033392;28;20491;-76
2023/03/24 06:02:13;;;;;;;0.50;0.50;;;;;;;5.40;100.00;98048.00;5017494;28;20030;-78
2023/03/24 06:04:44;;;;;;;0.40;0.40;;;;;;;5.34;100.00;98039.00;5000694;28;20034;-76
2023/03/24 06:07:15;;;;;;;0.40;0.40;;;;;;;5.17;100.00;98020.00;5001413;28;20037;-74
2023/03/24 06:09:49;;;;;;;0.40;0.40;;;;;;;5.26;100.00;98042.69;4999798;28;20542;-73
2023/03/24 06:12:15;;;;;;;0.40;0.40;;;;;;;5.28;100.00;98035.31;5015891;28;20037;-76
2023/03/24 06:14:41;;;;;;;0.40;0.40;;;;;;;5.32;100.00;98022.41;4998919;28;20037;-77
2023/03/24 06:17:13;;;;;;;0.40;0.40;;;;;;;5.32;100.00;98030.41;5015346;28;20029;-75
2023/03/24 06:19:48;;;;;;;0.50;0.50;;;;;;;5.34;100.00;98044.31;4999583;28;20033;-75
2023/03/24 06:22:17;;;;;;;0.50;0.50;;;;;;;5.27;100.00;98047.03;5016156;28;20491;-74
2023/03/24 06:24:43;;;;;;;0.43;0.43;;;;;;;5.19;100.00;98043.75;4999400;28;20037;-75
2023/03/24 06:27:10;;;;;;;0.40;0.40;;;;;;;5.19;100.00;98041.91;5000081;28;20127;-75
2023/03/24 06:29:42;;;;;;;0.40;0.40;;;;;;;5.28;100.00;98047.84;5016496;28;20040;-74
2023/03/24 06:32:08;;;;;;;0.52;0.40;;;;;;;5.37;100.00;98032.44;5000575;28;20037;-74
2023/03/24 06:34:36;;;;;;;0.50;0.50;;;;;;;5.52;100.00;98041.00;5000352;28;20029;-75
2023/03/24 06:37:02;;;;;;;0.50;0.50;;;;;;;5.66;100.00;98036.44;5033068;28;20033;-74
2023/03/24 06:39:28;;;;;;;0.50;0.50;;;;;;;5.73;100.00;98038.06;5016594;28;20029;-74
2023/03/24 06:41:54;;;;;;;0.40;0.40;;;;;;;5.77;100.00;98053.63;5000184;28;20029;-76
2023/03/24 06:44:20;;;;;;;0.50;0.50;;;;;;;5.70;100.00;98062.47;5000389;28;20127;-75
2023/03/24 06:46:46;;;;;;;0.50;0.50;;;;;;;5.66;100.00;98069.28;5000007;28;20124;-76
2023/03/24 06:49:11;;;;;;;0.40;0.40;;;;;;;5.64;100.00;98071.31;5016167;28;20026;-75
2023/03/24 06:51:37;;;;;;;0.50;0.50;;;;;;;5.65;100.00;98064.13;4999368;28;20628;-73
2023/03/24 06:54:03;;;;;;;0.40;0.40;;;;;;;5.67;100.00;98052.25;5000144;28;20033;-74
2023/03/24 06:56:29;;;;;;;0.50;0.50;;;;;;;5.70;100.00;98067.81;5000034;28;20384;-74
2023/03/24 06:58:55;;;;;;;0.40;0.40;;;;;;;5.75;100.00;98050.38;5032681;28;20033;-75
2023/03/24 07:01:21;;;;;;;0.50;0.50;;;;;;;5.70;100.00;98059.81;4999867;28;20128;-75
2023/03/24 07:03:47;;;;;;;0.40;0.40;;;;;;;5.64;100.00;98049.19;5032288;28;20033;-76
2023/03/24 07:06:13;;;;;;;0.40;0.40;;;;;;;5.59;100.00;98055.13;5033460;28;20377;-73
2023/03/24 07:08:39;;;;;;;0.50;0.50;;;;;;;5.62;100.00;98053.91;4999943;28;20060;-74
2023/03/24 07:11:07;;;;;;;0.50;0.50;;;;;;;5.70;100.00;98054.47;5032221;28;20029;-73
2023/03/24 07:13:33;;;;;;;0.40;0.40;;;;;;;5.83;100.00;98056.28;4999576;28;20037;-74
2023/03/24 07:15:59;;;;;;;0.40;0.40;;;;;;;6.09;100.00;98051.88;5015864;28;20064;-74
2023/03/24 07:18:25;;;;;;;0.50;0.50;;;;;;;6.45;100.00;98047.75;5032425;28;20127;-73
2023/03/24 07:20:50;;;;;;;0.40;0.40;;;;;;;7.03;100.00;98051.00;4999811;28;20515;-73
2023/03/24 07:23:16;;;;;;;0.50;0.50;;;;;;;7.53;100.00;98051.97;5015632;28;20511;-74
2023/03/24 07:25:43;;;;;;;0.50;0.50;;;;;;;8.02;100.00;98056.31;4999687;28;20041;-73
2023/03/24 07:28:09;;;;;;;0.50;0.50;;;;;;;8.25;100.00;98052.91;4999990;28;20373;-74
2023/03/24 07:30:35;;;;;;;0.40;0.40;;;;;;;7.95;100.00;98050.22;4999368;28;20563;-74
2023/03/24 07:33:03;;;;;;;0.40;0.40;;;;;;;7.40;100.00;98043.03;4999314;28;20029;-74
2023/03/24 07:35:29;;;;;;;0.50;0.50;;;;;;;7.01;100.00;98039.72;5015768;28;20487;-73
2023/03/24 07:38:01;;;;;;;0.40;0.40;;;;;;;6.76;100.00;98042.41;5015833;28;20026;-74
2023/03/24 07:40:29;;;;;;;0.40;0.40;;;;;;;6.70;100.00;98031.78;5031975;28;20029;-75
2023/03/24 07:42:54;;;;;;;0.50;0.50;;;;;;;6.76;100.00;98015.69;5016240;28;20041;-74
2023/03/24 07:45:20;;;;;;;0.60;0.60;;;;;;;6.89;100.00;98029.97;4999495;28;20056;-73
2023/03/24 07:47:47;;;;;;;0.80;0.47;;;;;;;6.94;100.00;98017.59;5031894;28;20032;-73
2023/03/24 07:50:13;;;;;;;0.50;0.50;;;;;;;6.95;100.00;98016.53;4999385;28;20045;-73
2023/03/24 07:52:41;;;;;;;0.50;0.50;;;;;;;7.06;100.00;98017.69;5015614;28;20036;-76
2023/03/24 07:55:10;;;;;;;0.40;0.40;;;;;;;7.09;100.00;98009.22;5032174;28;20059;-75
2023/03/24 07:57:37;;;;;;;0.40;0.40;;;;;;;7.10;100.00;98010.88;5015940;28;20094;-75
2023/03/24 08:00:16;;;;;;;0.50;0.50;;;;;;;7.19;100.00;98016.72;5031728;28;20026;-75
2023/03/24 08:02:50;;;;;;;0.50;0.50;;;;;;;7.43;100.00;98031.91;5019919;28;20033;-76
2023/03/24 08:05:20;;;;;;;0.50;0.50;;;;;;;7.54;100.00;98021.50;5003166;28;20072;-75
2023/03/24 08:07:54;;;;;;;0.50;0.50;;;;;;;7.45;100.00;98021.78;5002977;28;20037;-75
2023/03/24 08:10:29;;;;;;;0.40;0.40;;;;;;;7.30;100.00;98015.19;5035873;28;20030;-75
2023/03/24 08:12:56;;;;;;;0.40;0.40;;;;;;;7.19;100.00;98019.41;5019281;28;20052;-76
2023/03/24 08:15:22;;;;;;;0.50;0.50;;;;;;;7.22;100.00;98014.47;5002874;28;20030;-75
2023/03/24 08:17:49;;;;;;;0.40;0.40;;;;;;;7.43;100.00;98010.50;5035608;28;20052;-74
2023/03/24 08:20:15;;;;;;;0.50;0.50;;;;;;;7.61;100.00;98007.00;5019105;28;20041;-74
2023/03/24 08:22:42;;;;;;;0.40;0.40;;;;;;;8.09;100.00;98016.88;5019073;28;20041;-75
2023/03/24 08:25:11;;;;;;;0.60;0.60;;;;;;;9.73;100.00;98018.06;5002536;28;20395;-74
2023/03/24 08:27:38;;;;;;;0.50;0.50;;;;;;;10.22;100.00;98007.75;5018956;28;20037;-74
2023/03/24 08:30:12;;;;;;;0.40;0.40;;;;;;;9.78;100.00;98031.59;5018958;28;20483;-75
2023/03/24 08:32:42;;;;;;;0.40;0.40;;;;;;;8.93;100.00;98003.47;5035211;28;20025;-76
2023/03/24 08:35:11;;;;;;;0.80;0.80;;;;;;;8.46;100.00;98034.75;5002351;28;20136;-75
2023/03/24 08:37:36;;;;;;;0.40;0.40;;;;;;;8.21;100.00;98030.34;5018768;28;20041;-74
2023/03/24 08:40:04;;;;;;;3.00;1.95;;;;;;;9.24;100.00;98049.75;5002487;28;20483;-77
2023/03/24 08:42:30;;;;;;;0.70;0.70;;;;;;;11.00;100.00;98027.63;5018784;28;20045;-78
2023/03/24 08:44:55;;;;;;;0.70;0.70;;;;;;;12.51;100.00;98025.47;5018583;28;20029;-78
2023/03/24 08:47:21;;;;;;;0.70;0.70;;;;;;;13.63;99.52;98025.53;5034599;28;20076;-78
2023/03/24 08:49:46;;;;;;;0.70;0.70;;;;;;;13.52;97.65;98009.53;5034494;28;20037;-78
2023/03/24 08:52:12;;;;;;;0.90;0.90;;;;;;;14.28;93.98;98030.63;5018157;28;20026;-78
2023/03/24 08:54:38;;;;;;;0.80;0.80;;;;;;;14.84;90.19;98027.19;5034976;28;20033;-78
2023/03/24 08:57:03;;;;;;;0.77;0.77;;;;;;;15.18;88.12;98022.84;5034570;28;20037;-77
2023/03/24 08:59:29;;;;;;;0.80;0.80;;;;;;;15.58;85.59;98010.31;5018157;28;20044;-77
2023/03/24 09:01:55;;;;;;;1.35;0.95;;;;;;;16.24;83.91;98020.09;5034824;28;20107;-77
2023/03/24 09:04:21;;;;;;;1.83;0.80;;;;;;;15.87;83.70;98025.16;5018231;28;20037;-77
2023/03/24 09:06:46;;;;;;;1.13;1.02;;;;;;;16.04;83.21;98017.50;5034452;28;20029;-77
2023/03/24 09:09:12;;;;;;;1.00;1.00;;;;;;;16.14;82.33;98011.19;5035743;28;20380;-78
2023/03/24 09:11:38;;;;;;;1.92;1.10;;;;;;;16.34;81.73;98010.28;5034062;28;20029;-77
2023/03/24 09:14:03;;;;;;;2.13;1.50;;;;;;;16.58;78.55;97986.78;5017319;28;20397;-77
2023/03/24 09:16:29;;;;;;;6.35;1.80;;;;;;;16.62;79.10;98004.13;5034403;28;20377;-77
2023/03/24 09:18:55;;;;;;;2.60;1.52;;;;;;;16.78;78.72;97996.72;5017737;28;20427;-78
2023/03/24 09:21:23;;;;;;;4.15;1.40;;;;;;;16.45;78.88;98004.50;5001695;28;20079;-77
2023/03/24 09:23:49;;;;;;;4.35;1.80;;;;;;;14.61;86.49;98015.03;5034363;28;20078;-77
2023/03/24 09:26:14;;;;;;;3.10;1.33;;;;;;;13.81;91.31;98008.06;5033969;28;20025;-77
2023/03/24 09:28:40;;;;;;;5.13;1.67;;;;;;;14.40;91.16;98006.06;5017258;28;20035;-76
2023/03/24 09:31:06;;;;;;;3.35;1.50;;;;;;;15.41;85.70;98003.59;5001477;28;20033;-77
2023/03/24 09:33:33;;;;;;;5.07;2.15;;;;;;;16.35;79.71;97990.19;5017281;28;20018;-77
2023/03/24 09:36:00;;;;;;;5.57;2.08;;;;;;;17.03;74.95;97984.81;5017224;28;20025;-77
2023/03/24 09:38:29;;;;;;;9.18;2.95;;;;;;;17.67;71.69;97981.97;5001053;28;20048;-76
2023/03/24 09:41:01;;;;;;;12.73;3.13;;;;;;;17.94;69.54;97979.50;5017295;28;20044;-77
2023/03/24 09:43:37;;;;;;;10.80;2.80;;;;;;;18.52;63.71;97989.28;5017466;28;20044;-77
2023/03/24 09:46:06;;;;;;;10.30;2.53;;;;;;;18.67;65.29;97972.72;5033710;28;20104;-77
2023/03/24 09:48:40;;;;;;;9.07;2.63;;;;;;;18.64;61.07;97967.88;5016565;28;20103;-79
2023/03/24 09:51:33;;;;;;;6.43;2.67;;;;;;;19.01;60.71;97985.25;5017324;28;20052;-77
2023/03/24 09:54:05;;;;;;;12.88;3.97;;;;;;;19.49;59.67;97979.47;5031431;28;20115;-77
2023/03/24 09:56:32;;;;;;;8.90;1.77;;;;;;;17.13;66.59;97994.78;5033381;28;20080;-76
2023/03/24 09:59:03;;;;;;;8.75;2.22;;;;;;;15.79;74.06;98010.28;5033351;28;20487;-76
2023/03/24 10:01:28;;;;;;;10.13;3.03;;;;;;;14.89;76.86;97990.13;5033635;28;20128;-77
2023/03/24 10:04:01;;;;;;;7.82;1.80;;;;;;;13.75;85.15;97979.38;5032745;28;20599;-77
2023/03/24 10:06:30;;;;;;;7.55;2.10;;;;;;;13.52;87.52;97977.97;5033399;28;20045;-77
2023/03/24 10:09:05;;;;;;;11.23;3.47;;;;;;;13.70;87.05;97967.75;5033295;28;20040;-76
2023/03/24 10:11:36;;;;;;;6.97;1.85;;;;;;;13.70;85.67;97987.47;5032713;28;20376;-78
2023/03/24 10:14:27;;;;;;;15.00;1.95;;;;;;;12.80;91.18;97973.16;5032595;28;20037;-76
2023/03/24 10:17:03;;;;;;;7.47;1.65;;;;;;;12.78;91.43;97976.13;5033230;28;20033;-78
2023/03/24 10:19:46;;;;;;;9.98;2.67;;;;;;;14.46;81.68;97962.53;5016246;28;20589;-77
2023/03/24 10:22:24;;;;;;;8.20;2.80;;;;;;;14.11;77.91;97966.00;5034277;28;20025;-76
2023/03/24 10:24:58;;;;;;;2.83;1.85;;;;;;;13.88;77.94;97963.78;5032664;28;20033;-76
2023/03/24 10:27:35;;;;;;;8.85;2.22;;;;;;;14.42;70.48;97972.28;5016285;28;20044;-77
2023/03/24 10:30:23;;;;;;;10.93;2.75;;;;;;;15.91;60.56;97950.38;5000045;28;20499;-78
2023/03/24 10:32:48;;;;;;;7.53;3.08;;;;;;;16.16;56.12;97960.22;5016488;28;20030;-76
2023/03/24 10:35:18;;;;;;;10.65;2.38;;;;;;;14.39;61.05;97950.34;5016621;28;20033;-79
2023/03/24 10:37:44;;;;;;;4.63;1.50;;;;;;;13.34;65.10;97957.63;5016208;28;20040;-78
2023/03/24 10:40:17;;;;;;;11.80;2.33;;;;;;;13.06;65.32;97964.16;5032739;28;20029;-76
2023/03/24 10:42:44;;;;;;;5.32;2.30;;;;;;;12.86;66.08;97967.56;5016600;28;20033;-79
2023/03/24 10:45:16;;;;;;;10.88;2.83;;;;;;;13.03;66.46;97980.88;5016390;28;20040;-80
2023/03/24 10:47:42;;;;;;;8.30;2.28;;;;;;;13.08;66.35;97991.72;5032467;28;20029;-78
2023/03/24 10:50:09;;;;;;;6.80;2.38;;;;;;;12.72;70.22;97975.25;5014366;28;20558;-78
2023/03/24 10:52:39;;;;;;;9.13;2.53;;;;;;;12.12;72.95;97968.28;5013681;28;20030;-75
2023/03/24 10:55:15;;;;;;;7.95;2.40;;;;;;;11.14;80.73;97973.50;5030055;28;20048;-80
2023/03/24 10:57:45;;;;;;;9.18;2.78;;;;;;;10.11;97.57;97987.16;5014321;28;20041;-80
2023/03/24 11:00:30;;;;;;;2.45;1.15;;;;;;;9.36;100.00;98039.03;5030787;28;20044;-79
2023/03/24 11:02:58;;;;;;;6.30;1.52;;;;;;;9.12;100.00;98001.50;5014031;28;20232;-77
2023/03/24 11:05:43;;;;;;;0.77;0.77;;;;;;;9.40;100.00;97997.28;5031476;28;20025;-77
2023/03/24 11:08:31;;;;;;;0.75;0.68;;;;;;;9.44;100.00;98003.78;5032495;28;20034;-79
2023/03/24 11:10:57;;;;;;;0.85;0.63;;;;;;;9.32;100.00;97993.09;5031957;28;20029;-79
2023/03/24 11:13:23;;;;;;;3.30;1.10;;;;;;;9.29;100.00;98001.63;4997415;28;20036;-78
2023/03/24 11:15:55;;;;;;;1.05;1.00;;;;;;;9.52;100.00;98003.44;5031206;28;20152;-79
2023/03/24 11:18:21;;;;;;;3.03;0.98;;;;;;;9.47;100.00;97979.19;5032322;28;20033;-79
2023/03/24 11:20:57;;;;;;;1.30;0.98;;;;;;;9.74;100.00;98002.78;5015600;28;20387;-78
2023/03/24 11:23:30;;;;;;;1.88;1.25;;;;;;;10.89;100.00;98004.34;5015956;28;20033;-78
2023/03/24 11:26:08;;;;;;;1.17;0.90;;;;;;;11.00;100.00;98003.41;5016090;28;20046;-80
2023/03/24 11:28:45;;;;;;;2.92;0.90;;;;;;;11.31;100.00;98009.25;5033311;28;20468;-78
2023/03/24 11:31:17;;;;;;;2.17;1.10;;;;;;;11.08;100.00;97982.56;5015423;28;20029;-78
2023/03/24 11:34:01;;;;;;;0.50;0.50;;;;;;;10.45;100.00;98035.56;5016650;28;20193;-78
2023/03/24 11:36:32;;;;;;;2.17;1.00;;;;;;;9.95;100.00;98020.94;5000663;28;20044;-79
2023/03/24 11:39:03;;;;;;;3.67;0.90;;;;;;;9.07;100.00;98028.19;5036206;28;20033;-82
2023/03/24 11:41:29;;;;;;;2.05;0.90;;;;;;;8.81;100.00;98029.44;5019742;28;20061;-80
2023/03/24 11:44:19;;;;;;;1.08;0.70;;;;;;;8.81;100.00;98016.03;5019809;28;20057;-80
2023/03/24 11:46:48;;;;;;;2.38;0.93;;;;;;;8.88;100.00;97997.19;5035759;28;20032;-80
2023/03/24 11:49:18;;;;;;;4.80;1.02;;;;;;;9.00;100.00;98014.09;5019664;28;20037;-79
2023/03/24 11:51:46;;;;;;;2.08;0.85;;;;;;;9.01;100.00;98023.75;5035816;28;20033;-80
2023/03/24 11:54:14;;;;;;;5.60;1.15;;;;;;;8.63;100.00;98033.03;5035501;28;20388;-79